createdAt,value
2018-10-05T00:02:03.429Z,99.90
2018-10-05T00:04:31.660Z,99.90
2018-10-05T00:07:00.108Z,99.90
2018-10-05T00:09:28.250Z,99.90
2018-10-05T00:11:56.492Z,99.90
2018-10-05T00:14:25.352Z,99.90
2018-10-05T00:16:53.683Z,99.90
2018-10-05T00:19:21.868Z,99.90
2018-10-05T00:21:50.051Z,99.90
2018-10-05T00:24:18.191Z,99.90
2018-10-05T00:26:47.077Z,99.90
2018-10-05T00:29:15.221Z,99.90
2018-10-05T00:31:43.405Z,99.90
2018-10-05T00:34:11.543Z,99.90
2018-10-05T00:36:39.705Z,99.90
2018-10-05T00:39:09.096Z,99.90
2018-10-05T00:41:37.243Z,99.90
2018-10-05T00:44:05.448Z,99.90
2018-10-05T00:46:33.619Z,99.90
2018-10-05T00:49:01.752Z,99.90
2018-10-05T00:51:29.945Z,99.90
2018-10-05T00:53:58.225Z,99.90
2018-10-05T00:56:27.152Z,99.90
2018-10-05T00:58:55.282Z,99.90
2018-10-05T01:01:24.195Z,99.90
2018-10-05T01:03:52.363Z,99.90
2018-10-05T01:06:20.551Z,99.90
2018-10-05T01:08:48.689Z,99.90
2018-10-05T01:11:16.873Z,99.90
2018-10-05T01:13:45.473Z,99.90
2018-10-05T01:16:13.609Z,99.90
2018-10-05T01:18:41.790Z,99.90
2018-10-05T01:21:09.976Z,99.90
2018-10-05T01:23:38.927Z,99.90
2018-10-05T01:26:07.109Z,99.90
2018-10-05T01:28:36.111Z,99.90
2018-10-05T01:31:04.265Z,99.90
2018-10-05T01:33:32.465Z,99.80
2018-10-05T01:36:00.677Z,99.80
2018-10-05T01:38:28.859Z,99.90
2018-10-05T01:40:57.039Z,99.80
2018-10-05T01:43:25.237Z,99.80
2018-10-05T01:45:53.369Z,99.80
2018-10-05T01:48:21.544Z,99.90
2018-10-05T01:50:51.360Z,99.90
2018-10-05T01:53:19.470Z,99.90
2018-10-05T01:55:47.697Z,99.90
2018-10-05T01:58:16.445Z,99.80
2018-10-05T02:00:44.591Z,99.70
2018-10-05T02:03:12.707Z,99.70
2018-10-05T02:05:40.857Z,99.60
2018-10-05T02:08:09.015Z,99.60
2018-10-05T02:10:37.153Z,99.60
2018-10-05T02:13:05.262Z,99.60
2018-10-05T02:15:33.473Z,99.60
2018-10-05T02:18:02.667Z,99.50
2018-10-05T02:20:30.851Z,99.50
2018-10-05T02:22:59.021Z,99.40
2018-10-05T02:25:27.151Z,99.40
2018-10-05T02:27:55.315Z,99.40
2018-10-05T02:30:23.480Z,99.40
2018-10-05T02:32:51.664Z,99.30
2018-10-05T02:35:19.827Z,99.30
2018-10-05T02:37:48.021Z,99.30
2018-10-05T02:40:16.308Z,99.30
2018-10-05T02:42:44.491Z,99.30
2018-10-05T02:45:12.731Z,99.20
2018-10-05T02:47:40.911Z,99.10
2018-10-05T02:50:09.161Z,99.10
2018-10-05T02:52:37.357Z,99.00
2018-10-05T02:55:05.573Z,99.00
2018-10-05T02:57:33.754Z,99.00
2018-10-05T03:00:01.920Z,99.00
2018-10-05T03:02:31.615Z,98.90
2018-10-05T03:04:59.770Z,98.90
2018-10-05T03:07:29.125Z,98.90
2018-10-05T03:09:58.041Z,98.80
2018-10-05T03:12:26.296Z,98.80
2018-10-05T03:14:54.424Z,98.90
2018-10-05T03:17:23.960Z,98.80
2018-10-05T03:19:52.180Z,98.70
2018-10-05T03:22:20.931Z,98.70
2018-10-05T03:24:49.079Z,98.70
2018-10-05T03:27:17.261Z,99.10
2018-10-05T03:29:45.404Z,98.70
2018-10-05T03:32:13.543Z,98.80
2018-10-05T03:34:41.721Z,98.70
2018-10-05T03:37:09.892Z,98.70
2018-10-05T03:39:38.025Z,98.60
2018-10-05T03:42:06.264Z,98.60
2018-10-05T03:44:34.417Z,98.40
2018-10-05T03:47:02.599Z,98.30
2018-10-05T03:49:33.492Z,98.20
2018-10-05T03:52:01.745Z,98.20
2018-10-05T03:54:30.277Z,98.10
2018-10-05T03:56:58.476Z,98.00
2018-10-05T03:59:26.670Z,97.90
2018-10-05T04:01:54.801Z,97.90
2018-10-05T04:04:23.045Z,97.90
2018-10-05T04:06:51.210Z,97.90
2018-10-05T04:09:19.390Z,97.90
2018-10-05T04:11:47.570Z,98.00
2018-10-05T04:14:15.746Z,98.00
2018-10-05T04:16:43.912Z,97.90
2018-10-05T04:19:12.100Z,98.00
2018-10-05T04:21:40.300Z,98.00
2018-10-05T04:24:09.552Z,98.30
2018-10-05T04:26:37.706Z,98.00
2018-10-05T04:29:05.872Z,97.90
2018-10-05T04:31:34.062Z,97.90
2018-10-05T04:34:02.246Z,97.80
2018-10-05T04:36:30.475Z,97.70
2018-10-05T04:38:58.725Z,97.50
2018-10-05T04:41:26.875Z,97.60
2018-10-05T04:43:55.067Z,97.60
2018-10-05T04:46:23.268Z,97.70
2018-10-05T04:48:51.481Z,97.80
2018-10-05T04:51:20.271Z,98.00
2018-10-05T04:53:48.455Z,97.70
2018-10-05T04:56:16.854Z,97.80
2018-10-05T04:58:45.191Z,97.80
2018-10-05T05:01:13.414Z,97.70
2018-10-05T05:03:41.535Z,97.60
2018-10-05T05:06:09.706Z,97.60
2018-10-05T05:08:37.928Z,97.60
2018-10-05T05:11:06.388Z,97.50
2018-10-05T05:13:34.568Z,97.50
2018-10-05T05:16:03.544Z,97.50
2018-10-05T05:18:31.679Z,97.40
2018-10-05T05:21:00.771Z,97.40
2018-10-05T05:23:29.044Z,97.40
2018-10-05T05:25:57.344Z,97.40
2018-10-05T05:28:25.548Z,97.30
2018-10-05T05:30:53.761Z,97.30
2018-10-05T05:33:22.065Z,97.30
2018-10-05T05:35:50.302Z,97.30
2018-10-05T05:38:18.456Z,97.30
2018-10-05T05:40:46.683Z,97.30
2018-10-05T05:43:14.827Z,97.30
2018-10-05T05:45:43.111Z,97.30
2018-10-05T05:48:11.272Z,97.30
2018-10-05T05:50:39.508Z,97.30
2018-10-05T05:53:07.699Z,97.30
2018-10-05T05:55:35.854Z,97.30
2018-10-05T05:58:04.050Z,97.20
2018-10-05T06:00:32.284Z,97.30
2018-10-05T06:03:00.522Z,97.00
2018-10-05T06:05:29.915Z,96.90
2018-10-05T06:07:58.194Z,97.00
2018-10-05T06:10:27.228Z,97.00
2018-10-05T06:12:55.623Z,97.00
2018-10-05T06:15:23.829Z,96.90
2018-10-05T06:17:52.032Z,96.80
2018-10-05T06:20:20.166Z,96.70
2018-10-05T06:22:48.382Z,96.70
2018-10-05T06:25:16.553Z,96.60
2018-10-05T06:27:44.721Z,96.60
2018-10-05T06:30:12.926Z,96.60
2018-10-05T06:32:41.093Z,96.20
2018-10-05T06:35:09.276Z,96.30
2018-10-05T06:37:37.419Z,96.20
2018-10-05T06:40:05.660Z,96.00
2018-10-05T06:42:34.006Z,95.70
2018-10-05T06:45:02.163Z,95.60
2018-10-05T06:47:30.282Z,95.50
2018-10-05T06:49:58.460Z,95.30
2018-10-05T06:52:26.669Z,95.20
2018-10-05T06:54:54.846Z,95.00
2018-10-05T06:57:23.005Z,94.70
2018-10-05T06:59:51.170Z,94.60
2018-10-05T07:02:19.305Z,94.60
2018-10-05T07:04:47.448Z,94.40
2018-10-05T07:07:15.725Z,94.30
2018-10-05T07:09:43.862Z,94.30
2018-10-05T07:12:11.990Z,94.20
2018-10-05T07:14:40.115Z,94.40
2018-10-05T07:17:08.307Z,94.30
2018-10-05T07:19:36.425Z,94.20
2018-10-05T07:22:04.666Z,94.10
2018-10-05T07:24:32.888Z,94.20
2018-10-05T07:27:01.041Z,94.20
2018-10-05T07:29:29.180Z,94.10
2018-10-05T07:31:57.325Z,94.00
2018-10-05T07:34:26.004Z,93.80
2018-10-05T07:36:54.427Z,93.80
2018-10-05T07:39:24.148Z,93.70
2018-10-05T07:41:52.344Z,93.60
2018-10-05T07:44:21.401Z,93.30
2018-10-05T07:46:49.608Z,93.30
2018-10-05T07:49:17.836Z,93.20
2018-10-05T07:51:47.052Z,93.10
2018-10-05T07:54:15.755Z,93.00
2018-10-05T07:56:44.092Z,92.80
2018-10-05T07:59:12.568Z,92.70
2018-10-05T08:01:40.766Z,92.50
2018-10-05T08:04:08.957Z,92.70
2018-10-05T08:06:37.114Z,92.30
2018-10-05T08:11:43.268Z,92.10
2018-10-05T08:14:11.930Z,91.90
2018-10-05T08:16:40.072Z,91.90
2018-10-05T08:19:08.200Z,91.70
2018-10-05T08:21:36.333Z,91.20
2018-10-05T08:24:04.558Z,91.20
2018-10-05T08:26:32.770Z,90.90
2018-10-05T08:29:00.941Z,90.80
2018-10-05T08:31:29.099Z,90.50
2018-10-05T08:33:57.326Z,90.70
2018-10-05T08:36:25.510Z,90.30
2018-10-05T08:38:53.723Z,90.10
2018-10-05T08:41:21.866Z,90.00
2018-10-05T08:43:50.132Z,90.00
2018-10-05T08:46:18.302Z,89.50
2018-10-05T08:48:46.442Z,88.80
2018-10-05T08:51:14.548Z,88.30
2018-10-05T08:53:42.730Z,87.60
2018-10-05T08:56:10.874Z,87.50
2018-10-05T08:58:39.065Z,86.90
2018-10-05T09:01:07.251Z,87.30
2018-10-05T09:03:35.448Z,88.00
2018-10-05T09:06:03.578Z,86.60
2018-10-05T09:08:32.898Z,86.50
2018-10-05T09:11:01.060Z,84.80
2018-10-05T09:13:29.261Z,85.00
2018-10-05T09:15:57.476Z,84.40
2018-10-05T09:18:25.690Z,84.50
2018-10-05T09:20:53.784Z,83.90
2018-10-05T09:23:21.956Z,83.90
2018-10-05T09:25:50.093Z,83.00
2018-10-05T09:28:18.244Z,82.20
2018-10-05T09:30:46.448Z,82.00
2018-10-05T09:33:15.950Z,81.20
2018-10-05T09:35:44.312Z,81.00
2018-10-05T09:38:12.581Z,79.70
2018-10-05T09:40:40.813Z,79.10
2018-10-05T09:43:09.096Z,79.30
2018-10-05T09:45:37.431Z,79.10
2018-10-05T09:48:05.674Z,78.00
2018-10-05T09:50:34.036Z,78.90
2018-10-05T09:53:04.105Z,77.60
2018-10-05T09:55:32.324Z,76.50
2018-10-05T09:58:00.765Z,76.70
2018-10-05T10:00:34.498Z,76.90
2018-10-05T10:03:08.307Z,77.10
2018-10-05T10:05:36.479Z,77.40
2018-10-05T10:08:04.862Z,76.90
2018-10-05T10:10:32.991Z,76.80
2018-10-05T10:13:01.141Z,76.30
2018-10-05T10:15:30.404Z,76.40
2018-10-05T10:17:58.573Z,75.90
2018-10-05T10:20:26.762Z,74.90
2018-10-05T10:22:55.701Z,75.10
2018-10-05T10:25:23.857Z,75.30
2018-10-05T10:27:52.067Z,74.80
2018-10-05T10:30:20.268Z,75.40
2018-10-05T10:32:49.021Z,75.10
2018-10-05T10:35:17.232Z,74.40
2018-10-05T10:37:45.416Z,73.90
2018-10-05T10:40:13.578Z,73.60
2018-10-05T10:42:41.762Z,73.50
2018-10-05T10:45:10.342Z,74.20
2018-10-05T10:47:38.546Z,74.30
2018-10-05T10:52:41.375Z,73.40
2018-10-05T10:55:09.619Z,73.40
2018-10-05T10:57:37.679Z,72.80
2018-10-05T11:00:05.885Z,72.50
2018-10-05T11:02:34.008Z,72.70
2018-10-05T11:05:02.233Z,73.30
2018-10-05T11:07:30.358Z,73.50
2018-10-05T11:09:58.477Z,72.70
2018-10-05T11:12:26.616Z,72.10
2018-10-05T11:14:54.946Z,71.40
2018-10-05T11:17:23.071Z,71.90
2018-10-05T11:19:51.277Z,71.80
2018-10-05T11:22:19.457Z,72.40
2018-10-05T11:24:47.679Z,72.50
2018-10-05T11:27:15.861Z,72.90
2018-10-05T11:29:44.146Z,73.00
2018-10-05T11:32:12.239Z,72.40
2018-10-05T11:34:40.441Z,72.80
2018-10-05T11:37:08.693Z,73.00
2018-10-05T11:39:36.821Z,72.20
2018-10-05T11:42:05.100Z,72.00
2018-10-05T11:44:33.219Z,72.10
2018-10-05T11:47:03.088Z,71.50
2018-10-05T11:49:31.268Z,71.20
2018-10-05T11:51:59.553Z,71.50
2018-10-05T11:54:27.705Z,71.60
2018-10-05T11:56:55.866Z,72.00
2018-10-05T11:59:25.278Z,70.80
2018-10-05T12:01:53.469Z,71.00
2018-10-05T12:04:22.250Z,71.50
2018-10-05T12:06:50.433Z,71.00
2018-10-05T12:09:18.604Z,70.10
2018-10-05T12:11:46.780Z,69.20
2018-10-05T12:14:14.978Z,69.50
2018-10-05T12:16:43.135Z,69.40
2018-10-05T12:19:11.298Z,69.10
2018-10-05T12:21:39.442Z,69.70
2018-10-05T12:24:07.766Z,69.50
2018-10-05T12:26:35.950Z,69.40
2018-10-05T12:29:05.261Z,69.30
2018-10-05T12:31:33.455Z,68.80
2018-10-05T12:34:01.770Z,68.10
2018-10-05T12:36:29.987Z,68.30
2018-10-05T12:38:58.119Z,67.40
2018-10-05T12:41:26.344Z,67.40
2018-10-05T12:43:54.567Z,66.80
2018-10-05T12:46:22.854Z,66.70
2018-10-05T12:48:51.232Z,66.30
2018-10-05T12:51:19.355Z,66.50
2018-10-05T12:53:47.527Z,66.20
2018-10-05T12:56:15.931Z,66.70
2018-10-05T12:58:44.161Z,67.00
2018-10-05T13:01:12.378Z,66.60
2018-10-05T13:03:40.517Z,67.30
2018-10-05T13:06:08.690Z,67.70
2018-10-05T13:08:36.824Z,66.70
2018-10-05T13:11:04.973Z,66.80
2018-10-05T13:13:33.111Z,67.10
2018-10-05T13:16:01.320Z,67.40
2018-10-05T13:18:29.871Z,67.50
2018-10-05T13:20:58.177Z,67.10
2018-10-05T13:23:26.305Z,67.00
2018-10-05T13:25:54.473Z,67.00
2018-10-05T13:28:22.655Z,67.00
2018-10-05T13:30:51.351Z,67.60
2018-10-05T13:33:19.459Z,67.30
2018-10-05T13:35:47.600Z,67.60
2018-10-05T13:38:15.840Z,67.50
2018-10-05T13:40:43.992Z,67.40
2018-10-05T13:43:12.125Z,67.20
2018-10-05T13:45:40.289Z,67.80
2018-10-05T13:48:08.433Z,68.30
2018-10-05T13:50:36.670Z,68.50
2018-10-05T13:53:04.822Z,68.20
2018-10-05T13:55:33.083Z,68.10
2018-10-05T13:58:01.219Z,68.00
2018-10-05T14:00:29.445Z,68.00
2018-10-05T14:02:58.667Z,68.10
2018-10-05T14:05:26.977Z,68.10
2018-10-05T14:07:55.211Z,68.30
2018-10-05T14:10:23.489Z,68.60
2018-10-05T14:12:51.663Z,68.70
2018-10-05T14:15:19.901Z,68.70
2018-10-05T14:17:48.330Z,68.40
2018-10-05T14:20:16.456Z,68.20
2018-10-05T14:22:44.638Z,68.20
2018-10-05T14:25:12.887Z,68.40
2018-10-05T14:27:41.060Z,68.80
2018-10-05T14:30:09.265Z,69.10
2018-10-05T14:32:37.500Z,69.30
2018-10-05T14:35:05.679Z,69.00
2018-10-05T14:37:33.869Z,69.20
2018-10-05T14:40:02.053Z,68.90
2018-10-05T14:42:30.260Z,69.10
2018-10-05T14:44:58.468Z,69.10
2018-10-05T14:47:26.591Z,69.10
2018-10-05T14:49:54.749Z,69.60
2018-10-05T14:52:24.560Z,69.20
2018-10-05T14:54:53.633Z,69.40
2018-10-05T14:57:23.228Z,69.70
2018-10-05T14:59:53.002Z,69.60
2018-10-05T15:02:21.149Z,69.90
2018-10-05T15:04:49.348Z,70.30
2018-10-05T15:07:17.542Z,70.60
2018-10-05T15:09:46.529Z,70.90
2018-10-05T15:12:14.649Z,70.60
2018-10-05T15:14:42.815Z,71.00
2018-10-05T15:17:11.015Z,71.00
2018-10-05T15:19:39.235Z,71.00
2018-10-05T15:22:07.625Z,70.90
2018-10-05T15:24:35.841Z,70.80
2018-10-05T15:27:04.047Z,70.90
2018-10-05T15:29:32.258Z,71.30
2018-10-05T15:32:00.435Z,71.10
2018-10-05T15:34:29.180Z,71.20
2018-10-05T15:36:57.333Z,71.20
2018-10-05T15:39:25.673Z,71.20
2018-10-05T15:41:53.900Z,71.30
2018-10-05T15:44:22.046Z,71.60
2018-10-05T15:46:54.110Z,72.10
2018-10-05T15:49:22.285Z,72.40
2018-10-05T15:51:50.507Z,72.50
2018-10-05T15:54:18.800Z,72.80
2018-10-05T15:56:47.011Z,73.10
2018-10-05T15:59:15.727Z,73.40
2018-10-05T16:01:43.959Z,73.80
2018-10-05T16:04:12.162Z,73.90
2018-10-05T16:06:40.385Z,73.90
2018-10-05T16:09:09.197Z,74.20
2018-10-05T16:11:37.597Z,74.20
2018-10-05T16:14:05.912Z,74.10
2018-10-05T16:16:34.225Z,73.90
2018-10-05T16:19:03.307Z,74.00
2018-10-05T16:21:31.788Z,74.50
2018-10-05T16:23:59.955Z,75.10
2018-10-05T16:26:28.145Z,75.50
2018-10-05T16:28:56.425Z,75.80
2018-10-05T16:31:24.609Z,75.80
2018-10-05T16:33:53.431Z,75.60
2018-10-05T16:36:21.613Z,75.80
2018-10-05T16:38:49.799Z,75.80
2018-10-05T16:41:17.974Z,76.30
2018-10-05T16:43:46.206Z,76.90
2018-10-05T16:46:14.389Z,77.20
2018-10-05T16:48:42.560Z,77.70
2018-10-05T16:51:10.842Z,77.90
2018-10-05T16:53:39.062Z,78.00
2018-10-05T16:56:07.257Z,78.40
2018-10-05T16:58:35.489Z,78.60
2018-10-05T17:01:03.637Z,78.80
2018-10-05T17:03:31.998Z,79.10
2018-10-05T17:06:00.172Z,79.30
2018-10-05T17:08:30.043Z,79.60
2018-10-05T17:10:58.374Z,80.00
2018-10-05T17:13:26.513Z,80.90
2018-10-05T17:15:54.888Z,80.50
2018-10-05T17:18:23.152Z,80.80
2018-10-05T17:20:51.423Z,81.30
2018-10-05T17:23:19.601Z,81.80
2018-10-05T17:25:47.959Z,81.90
2018-10-05T17:28:16.236Z,82.40
2018-10-05T17:30:44.451Z,82.70
2018-10-05T17:33:12.609Z,83.00
2018-10-05T17:35:40.762Z,83.20
2018-10-05T17:38:08.938Z,83.60
2018-10-05T17:40:37.153Z,84.00
2018-10-05T17:43:05.902Z,84.30
2018-10-05T17:45:34.154Z,84.70
2018-10-05T17:48:02.410Z,85.00
2018-10-05T17:50:30.709Z,85.40
2018-10-05T17:52:59.006Z,85.70
2018-10-05T17:55:27.689Z,86.00
2018-10-05T17:57:56.098Z,86.30
2018-10-05T18:00:24.310Z,86.60
2018-10-05T18:02:52.735Z,86.80
2018-10-05T18:05:20.927Z,87.10
2018-10-05T18:07:49.098Z,87.50
2018-10-05T18:10:17.284Z,87.60
2018-10-05T18:12:45.477Z,87.90
2018-10-05T18:15:13.637Z,88.00
2018-10-05T18:17:41.844Z,88.10
2018-10-05T18:20:10.627Z,88.60
2018-10-05T18:22:38.842Z,88.80
2018-10-05T18:25:08.037Z,88.90
2018-10-05T18:27:36.240Z,89.00
2018-10-05T18:30:04.546Z,89.00
2018-10-05T18:32:33.836Z,89.30
2018-10-05T18:35:01.980Z,89.40
2018-10-05T18:37:30.162Z,89.50
2018-10-05T18:39:58.562Z,89.70
2018-10-05T18:42:26.809Z,90.00
2018-10-05T18:44:55.057Z,90.00
2018-10-05T18:47:23.263Z,90.10
2018-10-05T18:49:51.495Z,90.20
2018-10-05T18:52:19.748Z,90.30
2018-10-05T18:54:48.007Z,90.30
2018-10-05T18:57:19.957Z,90.40
2018-10-05T18:59:48.234Z,90.50
2018-10-05T19:02:17.022Z,90.50
2018-10-05T19:04:45.737Z,90.50
2018-10-05T19:07:14.590Z,90.70
2018-10-05T19:09:42.786Z,90.80
2018-10-05T19:12:11.163Z,90.80
2018-10-05T19:14:39.308Z,90.90
2018-10-05T19:17:07.480Z,91.10
2018-10-05T19:19:35.756Z,91.10
2018-10-05T19:22:03.986Z,91.10
2018-10-05T19:24:32.169Z,91.30
2018-10-05T19:27:00.469Z,91.40
2018-10-05T19:29:28.824Z,91.50
2018-10-05T19:31:57.085Z,91.60
2018-10-05T19:34:25.356Z,91.60
2018-10-05T19:36:53.564Z,91.70
2018-10-05T19:39:21.907Z,91.70
2018-10-05T19:41:50.091Z,91.70
2018-10-05T19:44:18.335Z,91.80
2018-10-05T19:46:46.540Z,91.70
2018-10-05T19:49:14.830Z,91.80
2018-10-05T19:51:43.002Z,92.20
2018-10-05T19:54:11.370Z,92.10
2018-10-05T19:56:39.638Z,92.20
2018-10-05T19:59:07.988Z,92.30
2018-10-05T20:01:36.247Z,92.20
2018-10-05T20:04:04.472Z,92.20
2018-10-05T20:06:32.664Z,92.20
2018-10-05T20:09:00.877Z,92.30
2018-10-05T20:11:29.105Z,92.30
2018-10-05T20:13:57.318Z,92.40
2018-10-05T20:16:26.109Z,92.50
2018-10-05T20:18:54.327Z,92.50
2018-10-05T20:21:23.810Z,92.60
2018-10-05T20:23:51.990Z,92.60
2018-10-05T20:26:20.236Z,92.70
2018-10-05T20:28:48.817Z,92.70
2018-10-05T20:31:16.964Z,92.80
2018-10-05T20:33:45.135Z,92.80
2018-10-05T20:36:13.446Z,93.00
2018-10-05T20:38:41.594Z,93.00
2018-10-05T20:41:09.768Z,93.00
2018-10-05T20:43:37.972Z,93.10
2018-10-05T20:46:06.209Z,93.20
2018-10-05T20:48:34.498Z,93.20
2018-10-05T20:51:02.728Z,93.30
2018-10-05T20:53:30.966Z,93.30
2018-10-05T20:55:59.315Z,93.30
2018-10-05T20:58:28.041Z,93.40
2018-10-05T21:00:56.276Z,93.50
2018-10-05T21:03:24.564Z,93.60
2018-10-05T21:05:52.925Z,93.60
2018-10-05T21:08:21.158Z,93.70
2018-10-05T21:10:49.376Z,93.80
2018-10-05T21:13:17.566Z,93.80
2018-10-05T21:15:45.837Z,93.80
2018-10-05T21:18:14.355Z,93.80
2018-10-05T21:20:42.610Z,93.90
2018-10-05T21:23:10.946Z,94.00
2018-10-05T21:25:39.096Z,94.00
2018-10-05T21:28:07.375Z,94.00
2018-10-05T21:30:35.610Z,94.00
2018-10-05T21:33:03.856Z,94.10
2018-10-05T21:35:31.891Z,94.10
2018-10-05T21:38:00.060Z,94.10
2018-10-05T21:40:28.245Z,93.90
2018-10-05T21:42:57.098Z,93.90
2018-10-05T21:45:25.248Z,93.90
2018-10-05T21:47:53.570Z,94.30
2018-10-05T21:50:21.946Z,94.10
2018-10-05T21:52:50.443Z,94.10
2018-10-05T21:55:19.833Z,94.10
2018-10-05T21:57:48.086Z,94.30
2018-10-05T22:00:16.400Z,94.30
2018-10-05T22:02:44.683Z,94.70
2018-10-05T22:05:13.577Z,94.30
2018-10-05T22:07:41.958Z,94.50
2018-10-05T22:10:10.172Z,94.60
2018-10-05T22:12:38.568Z,94.70
2018-10-05T22:15:06.934Z,94.80
2018-10-05T22:17:35.178Z,94.90
2018-10-05T22:20:03.491Z,95.00
2018-10-05T22:22:31.614Z,95.10
2018-10-05T22:24:59.750Z,95.10
2018-10-05T22:27:27.966Z,95.10
2018-10-05T22:29:56.184Z,95.10
2018-10-05T22:32:24.372Z,95.10
2018-10-05T22:34:52.550Z,95.00
2018-10-05T22:37:20.954Z,95.10
2018-10-05T22:39:49.779Z,95.10
2018-10-05T22:42:17.973Z,95.20
2018-10-05T22:44:46.740Z,95.30
2018-10-05T22:47:14.991Z,95.30
2018-10-05T22:49:43.254Z,95.10
2018-10-05T22:52:11.455Z,95.30
2018-10-05T22:54:40.147Z,95.30
2018-10-05T22:57:09.595Z,95.50
2018-10-05T22:59:37.787Z,95.50
2018-10-05T23:02:07.464Z,95.60
2018-10-05T23:04:35.711Z,95.60
2018-10-05T23:07:03.884Z,95.70
2018-10-05T23:09:32.035Z,95.60
2018-10-05T23:12:00.194Z,95.80
2018-10-05T23:14:28.418Z,95.90
2018-10-05T23:16:56.685Z,96.00
2018-10-05T23:19:24.826Z,96.10
2018-10-05T23:21:53.038Z,96.20
2018-10-05T23:24:21.887Z,96.20
2018-10-05T23:26:50.024Z,96.30
2018-10-05T23:29:18.191Z,96.50
2018-10-05T23:31:46.370Z,96.40
2018-10-05T23:34:14.598Z,96.40
2018-10-05T23:36:42.837Z,96.50
2018-10-05T23:39:11.713Z,96.60
2018-10-05T23:41:39.885Z,96.60
2018-10-05T23:44:08.298Z,96.60
2018-10-05T23:49:11.127Z,96.70
2018-10-05T23:51:39.315Z,96.50
2018-10-05T23:54:07.495Z,96.80
2018-10-05T23:56:35.739Z,96.80
2018-10-05T23:59:04.805Z,96.90
